< < Back
Terminal Aerodrome Forecast


Current Version              Previous Versions:   1  2  3  4  5  6  7  8  9  

Terminal Aerodrome Forecast

894
FTUS44 KOHX 301720
TAFBNA
TAF
KBNA 301720Z 3018/3118 17009KT P6SM VCSH SCT015 BKN100
     FM310100 14003KT P6SM BKN100=



Latest METAR

753
SAUS70 KWBC 302000 RRC
MTRBNA
METAR KBNA 301953Z 17006KT 10SM SCT110 BKN180 26/18 A3010 RMK AO2 SLP186
T02560183


USA.gov is the U.S. government's official web portal to all federal, state and local government web resources and services.